createdAt,value
2019-05-06T00:01:07.788Z,0.70
2019-05-06T00:06:08.979Z,0.70
2019-05-06T00:11:10.099Z,0.80
2019-05-06T00:16:14.196Z,0.70
2019-05-06T00:21:14.946Z,0.70
2019-05-06T00:26:20.817Z,0.60
2019-05-06T00:31:24.029Z,0.50
2019-05-06T00:36:25.292Z,0.70
2019-05-06T00:41:28.302Z,0.70
2019-05-06T00:46:29.418Z,0.50
2019-05-06T00:51:30.504Z,0.50
2019-05-06T00:56:33.786Z,0.50
2019-05-06T01:01:34.927Z,0.50
2019-05-06T01:06:36.011Z,0.50
2019-05-06T01:11:37.207Z,0.30
2019-05-06T01:16:38.413Z,0.30
2019-05-06T01:21:39.497Z,0.20
2019-05-06T01:26:40.583Z,0.00
2019-05-06T01:31:45.307Z,-0.10
2019-05-06T01:36:44.683Z,-0.10
2019-05-06T01:41:50.673Z,0.00
2019-05-06T01:46:54.033Z,0.10
2019-05-06T01:51:54.988Z,0.20
2019-05-06T01:56:56.304Z,0.20
2019-05-06T02:02:01.042Z,0.20
2019-05-06T02:07:00.645Z,0.10
2019-05-06T02:12:04.367Z,0.20
2019-05-06T02:17:05.453Z,0.40
2019-05-06T02:22:17.651Z,0.40
2019-05-06T02:27:18.747Z,0.40
2019-05-06T02:32:38.841Z,0.30
2019-05-06T02:37:46.359Z,0.30
2019-05-06T02:42:47.698Z,0.20
2019-05-06T02:47:53.569Z,0.10
2019-05-06T02:52:53.929Z,0.00
2019-05-06T02:57:55.119Z,-0.20
2019-05-06T03:02:56.206Z,-0.30
2019-05-06T03:07:57.849Z,-0.30
2019-05-06T03:12:59.028Z,-0.30
2019-05-06T03:18:03.011Z,-0.30
2019-05-06T03:23:08.487Z,-0.20
2019-05-06T03:28:09.598Z,-0.10
2019-05-06T03:38:13.881Z,0.20
2019-05-06T03:43:16.113Z,0.40
2019-05-06T03:48:19.495Z,0.60
2019-05-06T03:53:23.275Z,0.70
2019-05-06T03:58:26.804Z,0.90
2019-05-06T04:03:42.764Z,1.10
2019-05-06T04:08:33.850Z,1.30
2019-05-06T04:13:35.023Z,0.40
2019-05-06T04:18:43.591Z,1.50
2019-05-06T04:23:53.470Z,1.60
2019-05-06T04:28:55.751Z,1.70
2019-05-06T04:34:11.521Z,1.80
2019-05-06T04:39:03.911Z,1.90
2019-05-06T04:44:03.528Z,2.10
2019-05-06T04:49:04.633Z,2.20
2019-05-06T04:54:05.933Z,2.30
2019-05-06T04:59:07.235Z,2.30
2019-05-06T05:04:23.211Z,2.40
2019-05-06T05:09:16.644Z,2.50
2019-05-06T05:14:21.123Z,2.60
2019-05-06T05:19:20.143Z,2.60
2019-05-06T05:24:23.501Z,2.60
2019-05-06T05:29:24.846Z,2.60
2019-05-06T05:34:37.093Z,2.70
2019-05-06T05:39:28.967Z,2.90
2019-05-06T05:44:33.331Z,3.50
2019-05-06T05:49:36.423Z,3.10
2019-05-06T05:54:37.515Z,3.30
2019-05-06T05:59:38.736Z,3.40
2019-05-06T06:04:52.017Z,3.70
2019-05-06T06:09:45.759Z,3.90
2019-05-06T06:14:48.764Z,4.10
2019-05-06T06:19:57.904Z,4.40
2019-05-06T06:24:59.503Z,4.60
2019-05-06T06:30:02.433Z,5.00
2019-05-06T06:35:11.087Z,5.30
2019-05-06T06:40:13.877Z,5.70
2019-05-06T06:45:14.978Z,6.30
2019-05-06T06:50:16.064Z,6.30
2019-05-06T06:55:18.622Z,6.50
2019-05-06T07:00:24.775Z,7.30
2019-05-06T07:05:43.367Z,7.00
2019-05-06T07:10:44.983Z,7.30
2019-05-06T07:15:46.177Z,7.50
2019-05-06T07:20:55.016Z,7.90
2019-05-06T07:25:56.321Z,8.60
2019-05-06T07:31:13.056Z,8.90
2019-05-06T07:36:02.181Z,9.30
2019-05-06T07:41:05.432Z,9.30
2019-05-06T07:46:25.435Z,9.30
2019-05-06T07:51:26.744Z,9.30
2019-05-06T07:56:27.971Z,9.30
2019-05-06T08:01:29.070Z,9.40
2019-05-06T08:06:32.055Z,9.70
2019-05-06T08:11:33.504Z,10.00
2019-05-06T08:16:36.713Z,10.10
2019-05-06T08:21:39.730Z,9.70
2019-05-06T08:26:42.780Z,9.60
2019-05-06T08:31:44.058Z,9.70
2019-05-06T08:36:47.052Z,9.80
2019-05-06T08:41:48.264Z,10.30
2019-05-06T08:46:49.372Z,12.00
2019-05-06T08:51:55.088Z,10.80
2019-05-06T08:56:56.211Z,11.20
2019-05-06T09:01:59.223Z,11.70
2019-05-06T09:07:02.738Z,12.20
2019-05-06T09:12:03.439Z,12.90
2019-05-06T09:17:05.931Z,13.20
2019-05-06T09:22:07.030Z,12.40
2019-05-06T09:27:12.135Z,11.70
2019-05-06T09:32:22.638Z,11.00
2019-05-06T09:37:24.340Z,10.20
2019-05-06T09:42:25.621Z,9.90
2019-05-06T09:47:28.631Z,10.10
2019-05-06T09:52:29.725Z,10.60
2019-05-06T09:57:35.494Z,10.00
2019-05-06T10:02:36.588Z,10.00
2019-05-06T10:07:37.794Z,9.90
2019-05-06T10:12:38.911Z,9.30
2019-05-06T10:17:40.214Z,8.60
2019-05-06T10:22:43.059Z,7.70
2019-05-06T10:27:46.243Z,7.30
2019-05-06T10:32:49.278Z,7.10
2019-05-06T10:38:09.592Z,7.10
2019-05-06T10:43:26.956Z,7.30
2019-05-06T10:48:28.057Z,7.30
2019-05-06T10:53:29.161Z,7.20
2019-05-06T10:58:32.514Z,7.50
2019-05-06T11:03:33.287Z,7.60
2019-05-06T11:08:34.487Z,8.30
2019-05-06T11:13:35.633Z,8.70
2019-05-06T11:18:36.757Z,9.10
2019-05-06T11:23:37.940Z,9.70
2019-05-06T11:28:43.728Z,10.90
2019-05-06T11:33:46.734Z,11.30
2019-05-06T11:38:48.568Z,11.50
2019-05-06T11:43:52.097Z,12.10
2019-05-06T11:48:52.856Z,12.30
2019-05-06T11:53:54.280Z,13.10
2019-05-06T11:58:57.505Z,13.40
2019-05-06T12:03:58.697Z,14.00
2019-05-06T12:09:00.001Z,13.60
2019-05-06T12:14:02.535Z,14.20
2019-05-06T12:19:04.070Z,15.40
2019-05-06T12:24:05.181Z,17.30
2019-05-06T12:29:06.386Z,20.80
2019-05-06T12:34:07.480Z,21.30
2019-05-06T12:39:18.715Z,23.10
2019-05-06T12:44:19.621Z,22.30
2019-05-06T12:49:20.726Z,19.50
2019-05-06T12:54:22.407Z,16.20
2019-05-06T12:59:23.680Z,13.80
2019-05-06T13:04:44.499Z,12.60
2019-05-06T13:09:28.239Z,11.60
2019-05-06T13:14:29.425Z,10.70
2019-05-06T13:19:32.270Z,10.10
2019-05-06T13:24:33.624Z,9.50
2019-05-06T13:29:35.723Z,9.30
2019-05-06T13:34:36.939Z,9.10
2019-05-06T13:39:38.097Z,9.20
2019-05-06T13:44:39.291Z,9.30
2019-05-06T13:49:45.191Z,9.80
2019-05-06T13:54:46.468Z,10.20
2019-05-06T13:59:47.693Z,10.40
2019-05-06T14:04:48.891Z,10.70
2019-05-06T14:09:49.990Z,10.70
2019-05-06T14:14:52.680Z,10.90
2019-05-06T14:19:54.129Z,11.00
2019-05-06T14:25:09.532Z,11.00
2019-05-06T14:30:15.527Z,11.00
2019-05-06T14:35:16.639Z,11.50
2019-05-06T14:40:19.786Z,11.70
2019-05-06T14:45:22.143Z,12.30
2019-05-06T14:50:31.645Z,14.50
2019-05-06T14:55:28.359Z,17.70
2019-05-06T15:00:31.870Z,20.00
2019-05-06T15:05:35.982Z,19.90
2019-05-06T15:10:35.636Z,19.90
2019-05-06T15:15:36.778Z,20.10
2019-05-06T15:20:37.905Z,23.90
2019-05-06T15:25:39.016Z,24.80
2019-05-06T15:31:00.446Z,22.60
2019-05-06T15:36:09.242Z,17.60
2019-05-06T15:41:10.371Z,16.50
2019-05-06T15:46:12.220Z,15.80
2019-05-06T15:51:13.403Z,15.10
2019-05-06T15:56:14.553Z,14.90
2019-05-06T16:01:15.932Z,14.40
2019-05-06T16:06:17.151Z,13.40
2019-05-06T16:11:18.400Z,13.20
2019-05-06T16:16:19.513Z,12.90
2019-05-06T16:21:22.870Z,13.00
2019-05-06T16:26:24.078Z,12.90
2019-05-06T16:31:25.175Z,12.90
2019-05-06T16:36:26.407Z,12.60
2019-05-06T16:41:27.551Z,11.90
2019-05-06T16:46:28.747Z,11.40
2019-05-06T16:51:30.145Z,11.20
2019-05-06T16:56:36.188Z,10.40
2019-05-06T17:01:39.181Z,10.10
2019-05-06T17:06:42.938Z,9.80
2019-05-06T17:11:44.358Z,9.70
2019-05-06T17:16:45.479Z,9.60
2019-05-06T17:21:48.505Z,9.50
2019-05-06T17:26:49.792Z,9.30
2019-05-06T17:31:55.596Z,9.30
2019-05-06T17:36:58.707Z,9.20
2019-05-06T17:42:00.134Z,9.20
2019-05-06T17:47:20.031Z,9.30
2019-05-06T17:52:23.097Z,9.30
2019-05-06T17:57:24.499Z,9.20
2019-05-06T18:02:27.151Z,9.10
2019-05-06T18:07:28.400Z,9.00
2019-05-06T18:12:29.587Z,8.90
2019-05-06T18:17:33.003Z,8.80
2019-05-06T18:22:33.938Z,8.70
2019-05-06T18:27:35.181Z,8.60
2019-05-06T18:32:36.333Z,8.60
2019-05-06T18:37:37.568Z,8.40
2019-05-06T18:42:38.813Z,8.30
2019-05-06T18:47:41.835Z,8.20
2019-05-06T18:52:43.148Z,8.10
2019-05-06T18:57:44.674Z,7.90
2019-05-06T19:02:45.891Z,7.80
2019-05-06T19:07:47.350Z,7.70
2019-05-06T19:12:48.729Z,7.60
2019-05-06T19:17:50.040Z,7.60
2019-05-06T19:22:53.437Z,7.50
2019-05-06T19:27:54.522Z,7.40
2019-05-06T19:32:55.817Z,7.30
2019-05-06T19:37:57.217Z,7.20
2019-05-06T19:42:58.615Z,7.20
2019-05-06T19:47:59.766Z,7.20
2019-05-06T19:53:00.895Z,7.10
2019-05-06T19:58:02.422Z,7.00
2019-05-06T20:03:03.879Z,7.10
2019-05-06T20:08:07.099Z,7.00
2019-05-06T20:13:08.246Z,7.00
2019-05-06T20:18:09.584Z,6.90
2019-05-06T20:23:12.597Z,6.90
2019-05-06T20:28:13.893Z,6.80
2019-05-06T20:33:15.090Z,6.70
2019-05-06T20:38:16.283Z,6.60
2019-05-06T20:43:20.804Z,6.50
2019-05-06T20:48:20.496Z,7.00
2019-05-06T20:53:23.252Z,6.50
2019-05-06T20:58:24.620Z,6.40
2019-05-06T21:03:25.731Z,6.40
2019-05-06T21:08:26.839Z,6.40
2019-05-06T21:13:32.446Z,6.30
2019-05-06T21:18:32.510Z,6.40
2019-05-06T21:23:33.915Z,6.30
2019-05-06T21:28:35.039Z,6.20
2019-05-06T21:33:36.279Z,6.10
2019-05-06T21:38:37.391Z,6.10
2019-05-06T21:43:47.047Z,6.20
2019-05-06T21:48:42.068Z,6.20
2019-05-06T21:53:43.332Z,6.40
2019-05-06T21:58:44.424Z,6.00
2019-05-06T22:03:45.538Z,6.00
2019-05-06T22:08:47.421Z,5.90
2019-05-06T22:14:00.443Z,6.00
2019-05-06T22:18:53.136Z,5.90
2019-05-06T22:23:55.754Z,5.70
2019-05-06T22:28:57.096Z,5.60
2019-05-06T22:33:58.290Z,5.60
2019-05-06T22:38:59.497Z,5.60
2019-05-06T22:44:12.571Z,5.50
2019-05-06T22:49:03.618Z,5.40
2019-05-06T22:54:04.913Z,5.30
2019-05-06T22:59:06.034Z,5.20
2019-05-06T23:04:07.935Z,5.10
2019-05-06T23:09:09.064Z,5.10
2019-05-06T23:14:12.247Z,5.10
2019-05-06T23:19:13.185Z,5.00
2019-05-06T23:24:14.273Z,5.00
2019-05-06T23:29:15.392Z,5.00
2019-05-06T23:34:16.583Z,4.90
2019-05-06T23:39:58.089Z,4.90
2019-05-06T23:45:36.553Z,4.80
2019-05-06T23:51:15.380Z,4.80
2019-05-06T23:56:38.689Z,3.80
